Crawfordsville, IN (47939)

2:39 PM EDT on October 30, 2014 (GMT -0400)
Wabash College Campus | Change Station
CLOSE
Current Station
Personal Weather Station
Location: Crawfordsville, IN
Elevation: 778 ft
Nearby Weather Stations
Active Advisory: Freeze Warning

Elev 778 ft 40.04 °N, 86.91 °W | Updated 17 seconds ago

Partly Cloudy
Partly Cloudy
54.9 °F
Feels Like 54.9 °F
N
6.0
Wind Variable Wind from SW
Gusts 6.0 mph

Today
High -- | Low -- °F
--% Chance of Precip.
Yesterday
High -- | Low -- °F
Precip. -- in
8:14 AM 6:47 PM
Waxing Crescent, 46% visible
Pressure 30.13 in
Visibility 10.0 miles
Clouds Clear
Dew Point 32 °F
Humidity 42%
Rainfall 0.00 in
Snow Depth Not available.
UV 4 out of 12
Pollen .20 out of 12
Air Quality Not available.
Flu Activity Not available.
METAR KLAF 301754Z VRB03KT 10SM CLR 10/01 A3012 RMK AO2 SLP201 I6001 T01000006 10106 21011 58017

More Conditions Fewer Conditions

Pressure 30.13 in
Visibility 10.0 miles
Clouds Clear
Dew Point 32 °F
Humidity 42%
Rainfall 0.00 in
Snow Depth Not available.
UV 4 out of 12
Pollen .20 out of 12
Air Quality Not available.
Flu Activity Not available.
METAR KLAF 301754Z VRB03KT 10SM CLR 10/01 A3012 RMK AO2 SLP201 I6001 T01000006 10106 21011 58017

More Conditions Fewer Conditions

10-Day Weather Forecast

Almanac

Astronomy

Oct. 30, 2014 Rise Set
Actual Time
Civil Twilight
Nautical Twilight
Astronomical Twilight
Moon
Length of Visible Light
Length of Day
Tomorrow will be .
, % of the Moon is Illuminated

Today's Extremes

State Highs State Lows

Community

WunderPhotos

Upload Photos

1,766,423 photos uploaded!

WunderBlogs® & News

Nearby

Air Quality

  Air Quality AQ Index Pollutant
Not available.

Snow Depth

Station Depth Elevation

Earthquake Activity

City Distance Mag. Time & Date
Minimum magnitude displayed is 2.5.

Coastal Water Temperatures

Place Temperature

Nearby Weather Stations